Time;durP1;ratioP1;P1;durP2;ratioP2;P2;SDS_P1;SDS_P2;PMS_P1;PMS_P2;Temp;Humidity;BMP_temperature;BMP_pressure;BME280_temperature;BME280_humidity;BME280_pressure;Samples;Min_cycle;Max_cycle;Signal;HPM_P1;HPM_P2
2021/09/08 00:01:17;;;;;;;5.20;2.10;;;29.30;99.10;;;;;;6224220;23;20222;-95
2021/09/08 00:03:50;;;;;;;3.63;2.10;;;29.20;99.20;;;;;;6233912;23;20168;-95
2021/09/08 00:12:01;;;;;;;5.03;2.27;;;28.60;99.90;;;;;;6178748;23;20274;-95
2021/09/08 00:14:33;;;;;;;4.47;2.27;;;28.80;99.90;;;;;;6201792;22;20650;-95
2021/09/08 00:17:05;;;;;;;3.50;1.97;;;28.80;99.90;;;;;;6195761;23;20181;-96
2021/09/08 00:19:38;;;;;;;3.10;1.93;;;28.70;99.90;;;;;;6196318;23;20448;-96
2021/09/08 00:22:10;;;;;;;4.30;2.30;;;28.50;99.90;;;;;;6196602;23;20176;-96
2021/09/08 00:24:41;;;;;;;5.27;2.50;;;28.50;99.90;;;;;;6167239;23;20690;-96
2021/09/08 00:27:15;;;;;;;5.30;2.57;;;28.50;99.90;;;;;;6199831;23;20231;-96
2021/09/08 00:29:50;;;;;;;3.07;2.37;;;28.50;99.90;;;;;;6203337;22;20177;-95
2021/09/08 00:32:22;;;;;;;2.37;2.17;;;28.50;99.90;;;;;;6206602;22;20180;-96
2021/09/08 00:34:55;;;;;;;2.70;2.40;;;28.40;99.90;;;;;;6207992;22;20220;-96
2021/09/08 00:37:28;;;;;;;6.10;2.10;;;28.40;99.90;;;;;;6212071;22;20291;-96
2021/09/08 00:40:07;;;;;;;2.70;2.23;;;28.50;99.90;;;;;;6214344;22;20192;-93
2021/09/08 00:42:55;;;;;;;5.00;2.40;;;28.60;99.90;;;;;;6235877;22;20164;-96
2021/09/08 00:45:26;;;;;;;2.63;2.40;;;28.60;99.90;;;;;;6220701;23;20164;-96
2021/09/08 00:50:34;;;;;;;6.23;2.40;;;28.50;99.90;;;;;;6236177;22;20199;-95
2021/09/08 00:53:14;;;;;;;7.57;2.23;;;28.50;99.90;;;;;;6263423;23;20175;-93
2021/09/08 00:55:48;;;;;;;2.53;2.03;;;28.30;99.90;;;;;;6262686;23;20191;-93
2021/09/08 00:58:21;;;;;;;4.17;2.20;;;28.00;99.90;;;;;;6257648;23;20236;-92
2021/09/08 01:00:52;;;;;;;4.00;2.47;;;27.90;99.90;;;;;;6220623;23;20180;-91
2021/09/08 01:03:24;;;;;;;4.07;2.47;;;27.80;99.90;;;;;;6250110;23;20176;-94
2021/09/08 01:05:56;;;;;;;4.53;2.23;;;27.70;99.90;;;;;;6247423;23;20203;-93
2021/09/08 01:08:27;;;;;;;5.23;2.77;;;27.60;99.90;;;;;;6248464;23;20183;-94
2021/09/08 01:10:58;;;;;;;7.00;2.60;;;27.60;99.90;;;;;;6245917;23;20282;-92
2021/09/08 01:13:32;;;;;;;5.77;2.30;;;27.40;99.90;;;;;;6247647;23;20168;-93
2021/09/08 01:16:05;;;;;;;3.57;2.40;;;27.00;99.90;;;;;;6248317;23;20227;-94
2021/09/08 01:23:57;;;;;;;2.80;1.90;;;26.70;99.90;;;;;;6203013;23;20215;-92
2021/09/08 01:26:29;;;;;;;3.77;2.10;;;26.60;99.90;;;;;;6229649;23;20250;-93
2021/09/08 01:29:01;;;;;;;2.53;2.07;;;26.50;99.90;;;;;;6226381;23;20183;-93
2021/09/08 01:31:33;;;;;;;2.10;1.90;;;26.50;99.90;;;;;;6230248;23;20176;-93
2021/09/08 01:34:05;;;;;;;3.20;2.27;;;26.40;99.90;;;;;;6226124;23;20168;-93
2021/09/08 01:36:40;;;;;;;3.37;2.17;;;26.20;99.90;;;;;;6219839;23;20247;-93
2021/09/08 01:39:16;;;;;;;3.73;2.20;;;26.00;99.90;;;;;;6219645;23;20168;-92
2021/09/08 01:41:47;;;;;;;3.23;2.20;;;25.70;99.90;;;;;;6218529;23;20179;-93
2021/09/08 01:44:23;;;;;;;3.10;2.00;;;25.70;99.90;;;;;;6219014;23;20592;-93
2021/09/08 01:46:56;;;;;;;3.73;2.13;;;25.50;99.90;;;;;;6218786;22;20682;-93
2021/09/08 01:49:27;;;;;;;2.53;2.00;;;25.40;99.90;;;;;;6193406;23;20183;-93
2021/09/08 01:51:58;;;;;;;4.67;2.17;;;25.30;99.90;;;;;;6224030;23;20279;-93
2021/09/08 01:54:35;;;;;;;2.63;2.33;;;25.10;99.90;;;;;;6230879;23;20191;-93
2021/09/08 01:57:14;;;;;;;3.27;1.90;;;25.10;99.90;;;;;;6231355;23;20176;-92
2021/09/08 01:59:45;;;;;;;2.53;2.30;;;25.00;99.90;;;;;;6200278;23;20559;-92
2021/09/08 02:02:16;;;;;;;2.83;2.03;;;24.90;99.90;;;;;;6217289;23;20455;-92
2021/09/08 02:04:48;;;;;;;2.90;2.20;;;24.80;99.90;;;;;;6220545;23;20603;-91
2021/09/08 02:07:19;;;;;;;3.17;2.00;;;24.70;99.90;;;;;;6226734;23;20165;-90
2021/09/08 02:09:56;;;;;;;5.50;2.90;;;24.70;99.90;;;;;;6198068;23;20194;-93
2021/09/08 02:12:31;;;;;;;3.27;2.40;;;24.60;99.90;;;;;;6224083;23;20611;-93
2021/09/08 02:15:03;;;;;;;4.10;2.23;;;24.50;99.90;;;;;;6232277;23;20223;-94
2021/09/08 02:17:38;;;;;;;4.13;2.43;;;24.30;99.90;;;;;;6236848;22;20207;-94
2021/09/08 02:20:11;;;;;;;3.93;2.00;;;24.20;99.90;;;;;;6233284;23;20175;-94
2021/09/08 02:22:43;;;;;;;7.87;2.60;;;24.00;99.90;;;;;;6205678;23;20200;-93
2021/09/08 02:25:21;;;;;;;3.37;2.30;;;23.80;99.90;;;;;;6211956;23;20211;-93
2021/09/08 02:27:52;;;;;;;5.87;2.30;;;23.70;99.90;;;;;;6239807;22;20204;-91
2021/09/08 02:30:24;;;;;;;2.73;2.27;;;23.50;99.90;;;;;;6236176;22;20267;-89
2021/09/08 02:41:00;;;;;;;3.30;2.40;;;23.00;99.90;;;;;;6227967;23;20231;-94
2021/09/08 02:43:33;;;;;;;4.13;2.30;;;22.80;99.90;;;;;;6231730;23;20248;-94
2021/09/08 02:46:06;;;;;;;6.63;2.40;;;22.60;99.90;;;;;;6232465;23;20177;-95
2021/09/08 02:48:38;;;;;;;3.20;2.47;;;22.40;99.90;;;;;;6231557;23;20176;-93
2021/09/08 02:51:10;;;;;;;3.83;2.70;;;22.30;99.90;;;;;;6231943;23;20188;-94
2021/09/08 02:53:43;;;;;;;4.07;2.37;;;22.10;99.90;;;;;;6233609;23;20180;-94
2021/09/08 02:56:20;;;;;;;3.60;2.43;;;22.00;99.90;;;;;;6237759;22;20204;-95
2021/09/08 03:01:29;;;;;;;4.90;2.60;;;21.70;99.90;;;;;;6265919;22;20216;-93
2021/09/08 03:04:02;;;;;;;3.70;2.40;;;21.60;99.90;;;;;;6266820;22;20324;-94
2021/09/08 03:06:36;;;;;;;4.13;2.40;;;21.60;99.90;;;;;;6263317;23;20179;-94
2021/09/08 03:27:58;;;;;;;10.23;2.63;;;20.90;99.90;;;;;;6222908;23;20270;-92
2021/09/08 03:30:30;;;;;;;3.57;2.50;;;20.90;99.90;;;;;;6235575;23;20168;-91
2021/09/08 03:33:02;;;;;;;2.70;2.40;;;20.80;99.90;;;;;;6205896;23;20176;-90
2021/09/08 03:35:36;;;;;;;3.97;2.43;;;20.80;99.90;;;;;;6233713;23;20192;-93
2021/09/08 03:41:07;;;;;;;3.53;2.60;;;20.50;99.90;;;;;;6231940;23;20176;-95
2021/09/08 04:02:18;;;;;;;6.23;3.30;;;20.20;99.90;;;;;;6123718;22;2816220;-86
2021/09/08 04:04:51;;;;;;;4.20;2.87;;;20.10;99.90;;;;;;6217401;23;20190;-92
2021/09/08 04:12:47;;;;;;;5.60;2.70;;;20.00;99.90;;;;;;6245148;23;20202;-92
2021/09/08 04:18:07;;;;;;;5.73;2.40;;;19.80;99.90;;;;;;6234236;22;20222;-92
2021/09/08 04:20:40;;;;;;;5.87;2.77;;;19.80;99.90;;;;;;6210987;23;20469;-92
2021/09/08 04:23:12;;;;;;;9.33;2.60;;;19.80;99.90;;;;;;6212957;23;20169;-93
2021/09/08 04:25:47;;;;;;;2.67;2.17;;;19.80;99.90;;;;;;6236596;23;20199;-94
2021/09/08 04:28:19;;;;;;;4.27;2.20;;;19.70;99.90;;;;;;6234874;23;20164;-92
2021/09/08 04:30:51;;;;;;;2.90;2.13;;;19.70;99.90;;;;;;6236729;23;20179;-93
2021/09/08 04:33:25;;;;;;;2.53;2.27;;;19.70;99.90;;;;;;6231155;23;20169;-92
2021/09/08 04:35:57;;;;;;;3.53;2.30;;;19.60;99.90;;;;;;6238947;23;20168;-93
2021/09/08 04:38:33;;;;;;;3.87;2.77;;;19.60;99.90;;;;;;6189606;23;20168;-92
2021/09/08 04:41:05;;;;;;;3.73;2.23;;;19.50;99.90;;;;;;6235306;23;20182;-94
2021/09/08 04:43:36;;;;;;;4.93;2.50;;;19.50;99.90;;;;;;6211770;23;20168;-94
2021/09/08 04:46:08;;;;;;;3.43;2.10;;;19.50;99.90;;;;;;6234862;23;20192;-93
2021/09/08 04:48:46;;;;;;;3.50;2.40;;;19.50;99.90;;;;;;6238563;23;20461;-94
2021/09/08 04:51:26;;;;;;;3.07;2.27;;;19.50;99.90;;;;;;6248027;23;20164;-95
2021/09/08 04:53:58;;;;;;;2.43;2.20;;;19.40;99.90;;;;;;6234431;23;20176;-94
2021/09/08 04:56:29;;;;;;;2.90;2.60;;;19.40;99.90;;;;;;6227554;23;20781;-92
2021/09/08 04:59:00;;;;;;;3.80;2.70;;;19.40;99.90;;;;;;6218825;23;20181;-93
2021/09/08 05:01:32;;;;;;;3.20;2.53;;;19.40;99.90;;;;;;6236741;23;20172;-93
2021/09/08 05:04:07;;;;;;;3.60;2.70;;;19.40;99.90;;;;;;6233386;23;20195;-92
2021/09/08 05:06:39;;;;;;;3.33;1.93;;;19.40;99.90;;;;;;6200676;23;20212;-92
2021/09/08 05:09:10;;;;;;;3.77;2.37;;;19.40;99.90;;;;;;6218715;23;20176;-92
2021/09/08 05:11:42;;;;;;;3.93;2.30;;;19.40;99.90;;;;;;6200319;23;20175;-92
2021/09/08 05:14:14;;;;;;;3.20;2.23;;;19.40;99.90;;;;;;6235888;23;20181;-92
2021/09/08 05:19:29;;;;;;;3.47;2.50;;;19.40;99.90;;;;;;6236665;23;20196;-93
2021/09/08 05:22:01;;;;;;;3.07;2.50;;;19.40;99.90;;;;;;6240511;23;20200;-91
2021/09/08 05:24:33;;;;;;;3.40;2.50;;;19.40;99.90;;;;;;6219749;23;20187;-90
2021/09/08 05:27:05;;;;;;;3.77;2.70;;;19.30;99.90;;;;;;6192615;23;20203;-91
2021/09/08 05:29:36;;;;;;;3.93;2.20;;;19.30;99.90;;;;;;6218964;23;20176;-90
2021/09/08 05:32:07;;;;;;;3.03;2.40;;;19.30;99.90;;;;;;6225541;23;20176;-91
2021/09/08 05:34:41;;;;;;;4.00;2.40;;;19.40;99.90;;;;;;6218215;23;20591;-91
2021/09/08 05:37:14;;;;;;;2.63;2.00;;;19.40;99.90;;;;;;6216715;23;20184;-94
2021/09/08 05:39:45;;;;;;;2.87;2.30;;;19.40;99.90;;;;;;6218468;23;20238;-94
2021/09/08 05:42:16;;;;;;;2.60;2.40;;;19.30;99.90;;;;;;6218408;23;20176;-93
2021/09/08 05:44:47;;;;;;;4.57;2.80;;;19.30;99.90;;;;;;6217989;23;20184;-93
2021/09/08 05:47:20;;;;;;;4.03;2.30;;;19.30;99.90;;;;;;6218550;23;20211;-93
2021/09/08 05:49:54;;;;;;;3.10;2.40;;;19.30;99.90;;;;;;6182870;23;20183;-93
2021/09/08 05:57:52;;;;;;;4.07;2.50;;;19.20;99.90;;;;;;6207109;23;20188;-92
2021/09/08 06:00:23;;;;;;;3.07;2.67;;;19.10;99.90;;;;;;6232989;23;20179;-92
2021/09/08 06:02:55;;;;;;;3.90;2.30;;;19.10;99.90;;;;;;6220854;23;20188;-94
2021/09/08 06:05:29;;;;;;;3.37;2.30;;;19.10;99.90;;;;;;6193315;23;20200;-91
2021/09/08 06:08:00;;;;;;;4.07;2.60;;;19.10;99.90;;;;;;6218215;23;20161;-92
2021/09/08 06:10:32;;;;;;;3.70;2.60;;;19.10;99.90;;;;;;6194035;23;20925;-92
2021/09/08 06:13:04;;;;;;;4.27;2.87;;;19.10;99.90;;;;;;6216736;23;20804;-92
2021/09/08 06:15:35;;;;;;;2.50;2.30;;;19.00;99.90;;;;;;6217845;23;20258;-92
2021/09/08 06:18:08;;;;;;;3.47;2.37;;;19.00;99.90;;;;;;6220005;23;20196;-92
2021/09/08 06:20:41;;;;;;;4.70;2.43;;;19.00;99.90;;;;;;6216840;23;20230;-91
2021/09/08 06:23:16;;;;;;;3.63;2.40;;;18.90;99.90;;;;;;6221030;23;20231;-92
2021/09/08 06:25:47;;;;;;;2.90;2.33;;;18.80;99.90;;;;;;6215749;23;20299;-92
2021/09/08 06:28:19;;;;;;;3.30;2.43;;;18.80;99.90;;;;;;6216729;23;20180;-92
2021/09/08 06:30:50;;;;;;;3.67;2.40;;;18.80;99.90;;;;;;6216182;23;20184;-93
2021/09/08 06:33:22;;;;;;;3.50;2.53;;;18.80;99.90;;;;;;6217246;23;20192;-92
2021/09/08 06:35:56;;;;;;;3.50;2.47;;;18.80;99.90;;;;;;6216024;23;20230;-92
2021/09/08 06:38:27;;;;;;;3.83;2.27;;;18.70;99.90;;;;;;6221557;23;20172;-90
2021/09/08 06:41:00;;;;;;;3.77;2.80;;;18.70;99.90;;;;;;6216826;23;20523;-92
2021/09/08 06:43:31;;;;;;;2.67;2.13;;;18.70;99.90;;;;;;6190765;23;20199;-93
2021/09/08 06:46:03;;;;;;;3.17;2.63;;;18.70;99.90;;;;;;6216027;23;20342;-93
2021/09/08 06:48:34;;;;;;;4.07;2.00;;;18.70;99.90;;;;;;6216921;23;20173;-93
2021/09/08 06:51:08;;;;;;;3.40;2.13;;;18.70;99.90;;;;;;6217375;23;20180;-93
2021/09/08 06:53:38;;;;;;;2.47;2.27;;;18.70;99.90;;;;;;6216400;23;20536;-93
2021/09/08 06:56:09;;;;;;;3.93;3.30;;;18.70;99.90;;;;;;6217571;23;20180;-93
2021/09/08 06:58:40;;;;;;;3.00;2.70;;;18.70;99.90;;;;;;6218527;23;20192;-93
2021/09/08 07:01:11;;;;;;;3.40;2.27;;;18.70;99.90;;;;;;6223027;23;20791;-94
2021/09/08 07:03:43;;;;;;;2.63;2.43;;;18.70;99.90;;;;;;6218054;23;20315;-93
2021/09/08 07:06:16;;;;;;;3.43;2.60;;;18.70;99.90;;;;;;6215700;23;20283;-93
2021/09/08 07:08:48;;;;;;;2.97;2.17;;;18.60;99.90;;;;;;6216459;23;20169;-92
2021/09/08 07:11:19;;;;;;;2.60;2.40;;;18.70;99.90;;;;;;6217109;23;20172;-93
2021/09/08 07:13:51;;;;;;;5.17;2.20;;;18.70;99.90;;;;;;6218591;23;20183;-92
2021/09/08 07:16:22;;;;;;;3.17;2.33;;;18.70;99.90;;;;;;6215434;23;20302;-93
2021/09/08 07:18:54;;;;;;;4.97;2.43;;;18.70;99.90;;;;;;6217982;23;20164;-92
2021/09/08 07:21:28;;;;;;;3.73;2.40;;;18.80;99.90;;;;;;6216397;23;20199;-92
2021/09/08 07:23:59;;;;;;;3.13;2.53;;;18.80;99.90;;;;;;6217109;23;20169;-92
2021/09/08 07:26:45;;;;;;;4.47;2.57;;;18.80;99.90;;;;;;6216800;23;20196;-92
2021/09/08 07:29:19;;;;;;;3.23;2.43;;;18.80;99.90;;;;;;6219662;23;20188;-92
2021/09/08 07:31:52;;;;;;;4.13;2.40;;;18.80;99.90;;;;;;6221443;23;20254;-92
2021/09/08 07:34:23;;;;;;;2.97;2.40;;;18.80;99.90;;;;;;6223802;23;20188;-93
2021/09/08 07:36:56;;;;;;;2.83;2.07;;;18.80;99.90;;;;;;6237597;23;20152;-92
2021/09/08 07:39:30;;;;;;;3.63;2.50;;;18.80;99.90;;;;;;6237569;23;20172;-94
2021/09/08 07:42:02;;;;;;;6.00;2.33;;;18.80;99.90;;;;;;6203645;23;20191;-93
2021/09/08 07:44:33;;;;;;;2.63;2.37;;;18.80;99.90;;;;;;6195825;23;20207;-93
2021/09/08 07:47:05;;;;;;;3.33;2.60;;;18.80;99.90;;;;;;6224499;23;20192;-93
2021/09/08 07:49:37;;;;;;;2.70;2.30;;;18.70;99.90;;;;;;6237680;23;20160;-94
2021/09/08 07:52:10;;;;;;;3.10;2.10;;;18.70;99.90;;;;;;6237239;23;20183;-94
2021/09/08 07:54:42;;;;;;;2.77;2.40;;;18.70;99.90;;;;;;6237071;23;20175;-93
2021/09/08 07:57:12;;;;;;;5.63;2.40;;;18.70;99.90;;;;;;6232194;23;20176;-93
2021/09/08 07:59:44;;;;;;;4.83;2.23;;;18.80;99.90;;;;;;6203179;23;20189;-92
2021/09/08 08:02:16;;;;;;;5.20;2.40;;;18.80;99.90;;;;;;6203333;23;20212;-91
2021/09/08 08:04:47;;;;;;;2.73;2.30;;;18.80;99.90;;;;;;6191292;23;20217;-92
2021/09/08 08:07:21;;;;;;;7.87;2.60;;;18.80;99.90;;;;;;6188057;23;20201;-92
2021/09/08 08:09:54;;;;;;;4.57;2.20;;;18.80;99.90;;;;;;6187535;23;20184;-92
2021/09/08 08:12:28;;;;;;;5.63;2.57;;;18.90;99.90;;;;;;6186835;23;20236;-92
2021/09/08 08:15:00;;;;;;;2.73;2.13;;;19.00;99.90;;;;;;6185659;23;20184;-91
2021/09/08 08:17:31;;;;;;;5.17;2.43;;;19.20;99.90;;;;;;6185739;23;20181;-91
2021/09/08 08:20:04;;;;;;;4.57;2.87;;;19.20;99.90;;;;;;6186303;23;20196;-90
2021/09/08 08:22:38;;;;;;;5.17;2.70;;;19.30;99.90;;;;;;6187156;23;20166;-91
2021/09/08 08:25:12;;;;;;;8.33;3.33;;;19.30;99.90;;;;;;6188405;23;20169;-92
2021/09/08 08:27:43;;;;;;;6.53;2.83;;;19.30;99.90;;;;;;6185675;23;20280;-91
2021/09/08 08:30:16;;;;;;;4.13;2.90;;;19.30;99.90;;;;;;6188802;23;20181;-91
2021/09/08 08:32:48;;;;;;;3.83;2.90;;;19.30;99.90;;;;;;6188899;23;20181;-91
2021/09/08 08:35:20;;;;;;;5.20;3.13;;;19.30;99.90;;;;;;6190385;23;20188;-91
2021/09/08 08:37:56;;;;;;;5.47;2.93;;;19.20;99.90;;;;;;6189285;23;20193;-91
2021/09/08 08:40:31;;;;;;;4.27;3.10;;;19.20;99.90;;;;;;6193524;23;20169;-93
2021/09/08 08:43:03;;;;;;;5.03;3.30;;;19.20;99.90;;;;;;6190251;23;20607;-92
2021/09/08 08:45:34;;;;;;;10.33;3.70;;;19.20;99.90;;;;;;6189821;23;20177;-91
2021/09/08 08:48:06;;;;;;;8.73;4.00;;;19.30;99.90;;;;;;6193522;23;20204;-93
2021/09/08 08:50:37;;;;;;;8.63;3.73;;;19.20;99.90;;;;;;6190559;23;20175;-92
2021/09/08 08:53:12;;;;;;;8.13;3.70;;;19.30;99.90;;;;;;6197692;23;20168;-92
2021/09/08 08:55:44;;;;;;;7.10;3.57;;;19.30;99.90;;;;;;6205184;23;20252;-94
2021/09/08 08:58:18;;;;;;;4.67;3.43;;;19.40;99.90;;;;;;6218124;23;20247;-92
2021/09/08 09:00:49;;;;;;;6.93;3.80;;;19.40;99.90;;;;;;6235079;23;20184;-93
2021/09/08 09:03:28;;;;;;;5.60;3.63;;;19.30;99.90;;;;;;6239906;23;20175;-94
2021/09/08 09:06:05;;;;;;;3.97;3.40;;;19.30;99.90;;;;;;6235954;23;20228;-92
2021/09/08 09:08:39;;;;;;;6.67;2.97;;;19.30;99.90;;;;;;6239136;23;20192;-92
2021/09/08 09:11:12;;;;;;;5.37;3.20;;;19.30;99.90;;;;;;6240620;22;20179;-93
2021/09/08 09:13:42;;;;;;;5.07;3.07;;;19.20;99.90;;;;;;6246747;22;20227;-94
2021/09/08 09:16:14;;;;;;;4.93;3.40;;;19.30;99.90;;;;;;6220740;23;20181;-91
2021/09/08 09:18:46;;;;;;;4.20;2.77;;;19.20;99.90;;;;;;6222163;23;20173;-92
2021/09/08 09:21:18;;;;;;;4.43;3.00;;;19.20;99.90;;;;;;6221484;23;20698;-92
2021/09/08 09:23:53;;;;;;;5.00;2.63;;;19.20;99.90;;;;;;6219759;23;20180;-92
2021/09/08 09:26:26;;;;;;;4.67;2.70;;;19.20;99.90;;;;;;6217928;23;20183;-92
2021/09/08 09:29:06;;;;;;;4.27;2.50;;;19.20;99.90;;;;;;6220257;23;20208;-91
2021/09/08 09:31:50;;;;;;;5.33;3.50;;;19.30;99.90;;;;;;6218972;23;20203;-92
2021/09/08 09:34:23;;;;;;;4.30;2.97;;;19.20;99.90;;;;;;6223506;23;20195;-90
2021/09/08 09:36:56;;;;;;;5.00;2.90;;;19.20;99.90;;;;;;6219241;23;20201;-92
2021/09/08 09:39:33;;;;;;;5.33;3.10;;;19.20;99.90;;;;;;6219489;23;20282;-92
2021/09/08 09:42:09;;;;;;;4.53;3.57;;;19.30;99.90;;;;;;6219626;23;20246;-91
2021/09/08 09:44:42;;;;;;;5.07;2.97;;;19.40;99.90;;;;;;6219605;23;20183;-92
2021/09/08 09:47:13;;;;;;;5.83;3.33;;;19.40;99.90;;;;;;6219819;23;20179;-93
2021/09/08 09:49:45;;;;;;;5.17;3.10;;;19.40;99.90;;;;;;6171821;23;20226;-93
2021/09/08 09:52:16;;;;;;;4.60;3.43;;;19.50;99.90;;;;;;6222092;23;20169;-92
2021/09/08 09:54:51;;;;;;;5.17;3.33;;;19.50;99.90;;;;;;6238681;23;20168;-93
2021/09/08 09:57:24;;;;;;;3.60;3.30;;;19.50;99.90;;;;;;6239106;23;20180;-93
2021/09/08 09:59:56;;;;;;;5.20;3.47;;;19.50;99.90;;;;;;6224628;23;20192;-93
2021/09/08 10:02:28;;;;;;;6.80;3.70;;;19.60;99.90;;;;;;6218804;23;20177;-93
2021/09/08 10:05:00;;;;;;;5.73;3.60;;;19.60;99.90;;;;;;6194213;23;20180;-93
2021/09/08 10:07:32;;;;;;;7.07;4.07;;;19.70;99.90;;;;;;6217918;23;20570;-92
2021/09/08 10:10:13;;;;;;;6.70;4.23;;;19.80;99.90;;;;;;6219166;23;20176;-93
2021/09/08 10:12:50;;;;;;;6.40;3.80;;;19.90;99.90;;;;;;6193296;23;20173;-93
2021/09/08 10:15:22;;;;;;;8.13;4.00;;;19.90;99.90;;;;;;6162837;23;20177;-92
2021/09/08 10:17:53;;;;;;;4.43;3.90;;;20.00;99.90;;;;;;6160647;23;20193;-92
2021/09/08 10:20:26;;;;;;;8.10;4.20;;;20.10;99.90;;;;;;6188455;23;20169;-92
2021/09/08 10:22:57;;;;;;;5.87;3.80;;;20.10;99.90;;;;;;6187758;23;20177;-92
2021/09/08 10:25:30;;;;;;;6.30;3.90;;;20.10;99.90;;;;;;6163517;23;20177;-92
2021/09/08 10:28:02;;;;;;;4.67;3.57;;;20.10;99.90;;;;;;6186878;23;20204;-91
2021/09/08 10:30:40;;;;;;;4.40;4.00;;;20.10;99.90;;;;;;6188444;23;20165;-92
2021/09/08 10:33:11;;;;;;;6.07;3.40;;;20.10;99.90;;;;;;6187878;23;20229;-92
2021/09/08 10:35:45;;;;;;;4.20;3.53;;;20.00;99.90;;;;;;6188868;23;20172;-96
2021/09/08 10:38:23;;;;;;;4.67;3.70;;;20.10;99.90;;;;;;6189048;23;20631;-92
2021/09/08 10:40:56;;;;;;;6.90;3.50;;;20.10;99.90;;;;;;6187562;23;20204;-92
2021/09/08 10:43:32;;;;;;;5.73;3.83;;;20.00;99.90;;;;;;6187642;23;20244;-92
2021/09/08 10:46:06;;;;;;;6.27;3.80;;;20.10;99.90;;;;;;6160575;23;20667;-93
2021/09/08 10:48:39;;;;;;;4.60;3.67;;;20.10;99.90;;;;;;6187468;23;20208;-92
2021/09/08 10:51:11;;;;;;;9.23;4.20;;;20.10;99.90;;;;;;6186209;23;20188;-93
2021/09/08 10:53:42;;;;;;;5.20;3.90;;;20.10;99.90;;;;;;6185658;23;20515;-93
2021/09/08 10:56:15;;;;;;;7.80;4.00;;;20.10;99.90;;;;;;6185671;23;20208;-93
2021/09/08 10:59:03;;;;;;;5.47;4.07;;;20.00;99.90;;;;;;6187378;23;20199;-92
2021/09/08 11:01:35;;;;;;;6.20;4.23;;;20.00;99.90;;;;;;6186925;23;20177;-93
2021/09/08 11:04:13;;;;;;;8.17;4.30;;;19.90;99.90;;;;;;6186497;23;20174;-95
2021/09/08 11:06:46;;;;;;;5.07;4.10;;;19.90;99.90;;;;;;6185932;23;20184;-93
2021/09/08 11:09:19;;;;;;;7.20;3.93;;;19.90;99.90;;;;;;6188009;23;20200;-93
2021/09/08 11:11:54;;;;;;;6.03;3.87;;;19.80;99.90;;;;;;6197448;23;20169;-92
2021/09/08 11:14:47;;;;;;;7.10;4.13;;;19.70;99.90;;;;;;6217345;23;20199;-91
2021/09/08 11:17:23;;;;;;;6.13;4.50;;;19.70;99.90;;;;;;6213251;23;20210;-92
2021/09/08 11:19:56;;;;;;;5.47;4.23;;;19.70;99.90;;;;;;6215033;23;20180;-90
2021/09/08 11:22:37;;;;;;;8.73;4.60;;;19.80;99.90;;;;;;6219267;23;20949;-92
2021/09/08 11:25:11;;;;;;;11.63;4.67;;;19.80;99.90;;;;;;6216119;23;20227;-92
2021/09/08 11:27:54;;;;;;;5.20;4.37;;;19.80;99.90;;;;;;6216172;23;20187;-92
2021/09/08 11:30:29;;;;;;;4.93;4.47;;;19.80;99.90;;;;;;6215169;23;20196;-92
2021/09/08 11:33:02;;;;;;;7.33;4.47;;;19.80;99.90;;;;;;6216263;23;20168;-91
2021/09/08 11:35:41;;;;;;;7.10;4.17;;;19.90;99.90;;;;;;6217071;23;20176;-91
2021/09/08 11:38:18;;;;;;;5.90;4.43;;;19.90;99.90;;;;;;6217864;23;20172;-92
2021/09/08 11:40:53;;;;;;;6.57;4.17;;;19.90;99.90;;;;;;6216432;23;20606;-91
2021/09/08 11:43:38;;;;;;;6.03;3.80;;;20.00;99.90;;;;;;6219987;23;20206;-92
2021/09/08 11:46:17;;;;;;;5.40;4.17;;;19.90;99.90;;;;;;6217750;23;20177;-94
2021/09/08 11:48:51;;;;;;;7.00;4.50;;;20.10;99.90;;;;;;6217739;23;20250;-93
2021/09/08 11:51:24;;;;;;;6.27;4.33;;;20.10;99.90;;;;;;6217442;23;20219;-95
2021/09/08 11:53:57;;;;;;;6.10;4.80;;;20.10;99.90;;;;;;6215272;23;20187;-93
2021/09/08 11:56:28;;;;;;;5.13;4.33;;;20.10;99.90;;;;;;6215425;23;20203;-93
2021/09/08 11:59:04;;;;;;;11.43;4.40;;;20.30;99.90;;;;;;6216635;23;20175;-93
2021/09/08 12:01:37;;;;;;;6.37;4.50;;;20.20;99.90;;;;;;6218497;23;20178;-93
2021/09/08 12:04:11;;;;;;;5.77;3.90;;;20.20;99.90;;;;;;6218280;23;20207;-93
2021/09/08 12:06:58;;;;;;;5.90;4.77;;;20.20;99.90;;;;;;6228626;23;20187;-94
2021/09/08 12:09:32;;;;;;;6.57;4.33;;;20.20;99.90;;;;;;6220674;23;20212;-92
2021/09/08 12:12:05;;;;;;;5.97;4.40;;;20.20;99.90;;;;;;6229650;23;20208;-92
2021/09/08 12:14:44;;;;;;;7.60;4.37;;;20.20;99.90;;;;;;6226062;23;20223;-90
2021/09/08 12:17:21;;;;;;;7.80;4.90;;;20.10;99.90;;;;;;6221093;23;20180;-89
2021/09/08 12:20:01;;;;;;;5.63;3.83;;;20.10;99.90;;;;;;6218319;23;20182;-91
2021/09/08 12:22:35;;;;;;;6.33;4.27;;;19.90;99.90;;;;;;6192353;23;20556;-91
2021/09/08 12:25:15;;;;;;;7.30;4.43;;;19.90;99.90;;;;;;6219656;23;20176;-91
2021/09/08 12:27:48;;;;;;;6.63;4.10;;;19.80;99.90;;;;;;6216333;23;20176;-91
2021/09/08 12:30:28;;;;;;;5.40;4.17;;;19.80;99.90;;;;;;6217779;23;20211;-91
2021/09/08 12:33:03;;;;;;;7.67;4.07;;;19.70;99.90;;;;;;6217363;23;20180;-91
2021/09/08 12:35:43;;;;;;;4.53;3.80;;;19.70;99.90;;;;;;6217996;23;20172;-91
2021/09/08 12:38:27;;;;;;;7.73;3.40;;;19.60;99.90;;;;;;6217083;23;20230;-91
2021/09/08 12:41:10;;;;;;;6.20;3.67;;;19.50;99.90;;;;;;6216926;23;20229;-92
2021/09/08 12:43:43;;;;;;;5.67;3.77;;;19.50;99.90;;;;;;6218350;23;20172;-91
2021/09/08 12:46:17;;;;;;;5.23;3.57;;;19.50;99.90;;;;;;6215923;23;20184;-93
2021/09/08 12:48:48;;;;;;;7.40;3.80;;;19.40;99.90;;;;;;6218063;23;20176;-93
2021/09/08 12:51:19;;;;;;;7.80;3.60;;;19.30;99.90;;;;;;6218013;23;20176;-93
2021/09/08 12:53:51;;;;;;;6.93;4.13;;;19.30;99.90;;;;;;6218854;23;20219;-93
2021/09/08 12:56:24;;;;;;;5.63;3.60;;;19.30;99.90;;;;;;6217004;23;20180;-93
2021/09/08 12:58:58;;;;;;;6.17;3.67;;;19.20;99.90;;;;;;6220773;23;20196;-94
2021/09/08 13:01:32;;;;;;;6.67;3.53;;;19.20;99.90;;;;;;6219745;23;20232;-94
2021/09/08 13:04:04;;;;;;;5.13;3.73;;;19.20;99.90;;;;;;6221624;23;20219;-93
2021/09/08 13:06:35;;;;;;;5.10;3.70;;;19.20;99.90;;;;;;6219994;23;20822;-92
2021/09/08 13:09:06;;;;;;;5.23;3.30;;;19.30;99.90;;;;;;6219534;23;20263;-92
2021/09/08 13:11:38;;;;;;;4.97;3.40;;;19.30;99.90;;;;;;6222225;23;20172;-92
2021/09/08 13:14:10;;;;;;;6.47;3.33;;;19.40;99.90;;;;;;6223964;23;20191;-92
2021/09/08 13:16:44;;;;;;;5.17;3.37;;;19.60;99.90;;;;;;6221558;23;20247;-92
2021/09/08 13:19:15;;;;;;;3.93;2.90;;;19.70;99.90;;;;;;6236322;23;20254;-93
2021/09/08 13:21:47;;;;;;;5.20;3.07;;;19.80;99.90;;;;;;6236089;23;20199;-92
2021/09/08 13:24:20;;;;;;;3.97;3.10;;;19.80;99.90;;;;;;6238180;23;20184;-92
2021/09/08 13:26:51;;;;;;;7.07;3.13;;;19.70;99.90;;;;;;6234822;23;20176;-92
2021/09/08 13:29:23;;;;;;;4.60;3.23;;;19.60;99.90;;;;;;6234401;23;20215;-90
2021/09/08 13:31:58;;;;;;;3.87;2.87;;;19.50;99.90;;;;;;6228560;23;20602;-92
2021/09/08 13:34:31;;;;;;;5.47;3.40;;;19.50;99.90;;;;;;6219623;23;20661;-92
2021/09/08 13:37:03;;;;;;;5.20;3.03;;;19.40;99.90;;;;;;6218663;23;20196;-92
2021/09/08 13:39:34;;;;;;;5.97;3.30;;;19.30;99.90;;;;;;6218727;23;20177;-93
2021/09/08 13:42:06;;;;;;;6.90;3.33;;;19.30;99.90;;;;;;6218677;23;20168;-93
2021/09/08 13:44:38;;;;;;;5.50;3.17;;;19.30;99.90;;;;;;6218247;23;20164;-93
2021/09/08 13:47:14;;;;;;;5.30;3.27;;;19.30;99.90;;;;;;6191072;23;20179;-94
2021/09/08 13:49:46;;;;;;;3.30;2.90;;;19.30;99.90;;;;;;6216198;23;20432;-94
2021/09/08 13:52:18;;;;;;;4.43;3.00;;;19.30;99.90;;;;;;6217509;23;20603;-94
2021/09/08 13:54:50;;;;;;;5.30;3.33;;;19.30;99.90;;;;;;6191496;23;20173;-94
2021/09/08 13:57:21;;;;;;;5.90;3.40;;;19.30;99.90;;;;;;6217042;23;20176;-94
2021/09/08 13:59:52;;;;;;;5.07;2.97;;;19.30;99.90;;;;;;6217027;23;20177;-92
2021/09/08 14:02:25;;;;;;;3.83;2.70;;;19.20;99.90;;;;;;6223540;23;20172;-92
2021/09/08 14:04:57;;;;;;;4.83;3.10;;;19.30;99.90;;;;;;6227265;23;20183;-92
2021/09/08 14:07:28;;;;;;;5.47;2.93;;;19.20;99.90;;;;;;6222718;23;20180;-93
2021/09/08 14:10:00;;;;;;;4.60;2.83;;;19.20;99.90;;;;;;6219692;23;20266;-93
2021/09/08 14:12:31;;;;;;;7.10;3.20;;;19.20;99.90;;;;;;6229403;23;20180;-92
2021/09/08 14:15:04;;;;;;;4.77;2.73;;;19.20;99.90;;;;;;6224537;23;20192;-92
2021/09/08 14:17:40;;;;;;;4.03;2.77;;;19.20;99.90;;;;;;6197751;23;20164;-93
2021/09/08 14:20:14;;;;;;;4.27;2.87;;;19.10;99.90;;;;;;6207371;23;20168;-93
2021/09/08 14:22:46;;;;;;;4.17;2.73;;;19.10;99.90;;;;;;6217075;23;20172;-91
2021/09/08 14:25:18;;;;;;;4.50;3.00;;;19.00;99.90;;;;;;6231160;23;20176;-92
2021/09/08 14:27:50;;;;;;;5.80;2.93;;;19.00;99.90;;;;;;6235829;23;20226;-92
2021/09/08 14:30:21;;;;;;;4.47;2.90;;;19.00;99.90;;;;;;6210430;23;20246;-92
2021/09/08 14:32:55;;;;;;;6.53;3.20;;;19.00;99.90;;;;;;6213332;23;20164;-92
2021/09/08 14:35:27;;;;;;;6.20;3.57;;;19.00;99.90;;;;;;6233640;23;20194;-92
2021/09/08 14:37:58;;;;;;;5.83;3.20;;;18.90;99.90;;;;;;6230103;23;20220;-92